createdAt,value
2023-05-15T00:00:19.499Z,9.2844
2023-05-15T00:01:19.746Z,9.2761
2023-05-15T00:02:20.124Z,9.2644
2023-05-15T00:03:20.512Z,9.2712
2023-05-15T00:04:20.961Z,9.2759
2023-05-15T00:05:22.051Z,9.2685
2023-05-15T00:06:22.341Z,9.2619
2023-05-15T00:07:23.253Z,9.2525
2023-05-15T00:08:24.194Z,9.2470
2023-05-15T00:09:24.512Z,9.2458
2023-05-15T00:10:25.456Z,9.2454
2023-05-15T00:11:25.788Z,9.2396
2023-05-15T00:12:26.110Z,9.2209
2023-05-15T00:13:27.253Z,9.2145
2023-05-15T00:14:27.494Z,9.2181
2023-05-15T00:16:28.955Z,9.1965
2023-05-15T00:17:29.268Z,9.1946
2023-05-15T00:19:31.102Z,9.1731
2023-05-15T00:20:32.183Z,9.1947
2023-05-15T00:21:33.107Z,9.2101
2023-05-15T00:22:34.248Z,9.2157
2023-05-15T00:23:34.502Z,9.2259
2023-05-15T00:24:35.591Z,9.2353
2023-05-15T00:25:36.529Z,9.2301
2023-05-15T00:26:38.190Z,9.2176
2023-05-15T00:27:39.312Z,9.2259
2023-05-15T00:28:40.197Z,9.2370
2023-05-15T00:29:41.082Z,9.2499
2023-05-15T00:30:41.363Z,9.2650
2023-05-15T00:31:42.300Z,9.2873
2023-05-15T00:32:43.843Z,9.3057
2023-05-15T00:33:44.506Z,9.3202
2023-05-15T00:34:45.453Z,9.3304
2023-05-15T00:35:46.438Z,9.3259
2023-05-15T00:36:46.698Z,9.3233
2023-05-15T00:37:47.736Z,9.3304
2023-05-15T00:38:48.649Z,9.3201
2023-05-15T00:39:48.961Z,9.3293
2023-05-15T00:40:49.847Z,9.3346
2023-05-15T00:41:50.762Z,9.3289
2023-05-15T00:42:51.077Z,9.3612
2023-05-15T00:43:52.100Z,9.3912
2023-05-15T00:44:53.023Z,9.4031
2023-05-15T00:45:53.352Z,9.3744
2023-05-15T00:46:54.385Z,9.3502
2023-05-15T00:47:54.739Z,9.3356
2023-05-15T00:48:55.117Z,9.3346
2023-05-15T00:49:56.088Z,9.3291
2023-05-15T00:50:56.365Z,9.3232
2023-05-15T00:51:56.682Z,9.3371
2023-05-15T00:52:56.956Z,9.3383
2023-05-15T00:53:57.275Z,9.3378
2023-05-15T00:55:58.626Z,9.3570
2023-05-15T00:56:59.097Z,9.3649
2023-05-15T00:58:00.179Z,9.3749
2023-05-15T00:59:01.034Z,9.4024
2023-05-15T01:00:01.984Z,9.4134
2023-05-15T01:01:02.257Z,9.4178
2023-05-15T01:02:02.555Z,9.4167
2023-05-15T01:03:02.860Z,9.4203
2023-05-15T01:04:03.802Z,9.4308
2023-05-15T01:05:04.746Z,9.4179
2023-05-15T01:06:05.043Z,9.4248
2023-05-15T01:07:06.092Z,9.4376
2023-05-15T01:08:07.252Z,9.5157
2023-05-15T01:09:07.538Z,9.6147
2023-05-15T01:10:08.525Z,9.6416
2023-05-15T01:11:09.535Z,9.6677
2023-05-15T01:12:09.813Z,9.6662
2023-05-15T01:13:10.862Z,9.6664
2023-05-15T01:14:11.890Z,9.6628
2023-05-15T01:15:13.085Z,9.6472
2023-05-15T01:16:13.377Z,9.6466
2023-05-15T01:17:14.380Z,9.6376
2023-05-15T01:18:15.829Z,9.6283
2023-05-15T01:19:16.258Z,9.6162
2023-05-15T01:21:17.729Z,9.7110
2023-05-15T01:22:18.047Z,9.7149
2023-05-15T01:23:18.343Z,9.7306
2023-05-15T01:24:18.607Z,9.7308
2023-05-15T01:26:20.136Z,9.6983
2023-05-15T01:27:21.325Z,9.6726
2023-05-15T01:28:22.245Z,9.6679
2023-05-15T01:29:23.190Z,9.6792
2023-05-15T01:30:23.525Z,9.6784
2023-05-15T01:31:24.565Z,9.6517
2023-05-15T01:32:25.823Z,9.6718
2023-05-15T01:33:26.167Z,9.6923
2023-05-15T01:34:27.104Z,9.7586
2023-05-15T01:35:27.592Z,9.7846
2023-05-15T01:36:28.030Z,9.7680
2023-05-15T01:37:29.206Z,9.7638
2023-05-15T01:38:30.178Z,9.7478
2023-05-15T01:40:31.708Z,9.7389
2023-05-15T01:41:32.760Z,9.7409
2023-05-15T01:43:34.316Z,9.7152
2023-05-15T01:44:34.993Z,9.6889
2023-05-15T01:45:36.480Z,9.6684
2023-05-15T01:46:37.537Z,9.6775
2023-05-15T01:47:37.831Z,9.7194
2023-05-15T01:48:38.769Z,9.7353
2023-05-15T01:49:39.112Z,9.7256
2023-05-15T01:50:39.395Z,9.7392
2023-05-15T01:51:39.666Z,9.7596
2023-05-15T01:52:39.943Z,9.7502
2023-05-15T01:53:40.234Z,9.7591
2023-05-15T01:54:40.499Z,9.7576
2023-05-15T01:55:41.502Z,9.7635
2023-05-15T01:56:41.763Z,9.7562
2023-05-15T01:57:42.688Z,9.7657
2023-05-15T01:58:43.575Z,9.7663
2023-05-15T01:59:43.843Z,9.7125
2023-05-15T02:00:44.858Z,9.7572
2023-05-15T02:01:45.759Z,9.7927
2023-05-15T02:02:46.156Z,9.7822
2023-05-15T02:04:47.616Z,9.6162
2023-05-15T02:05:47.909Z,9.6042
2023-05-15T02:06:48.823Z,9.5549
2023-05-15T02:07:49.158Z,9.5203
2023-05-15T02:08:49.446Z,9.5145
2023-05-15T02:09:49.706Z,9.4621
2023-05-15T02:10:49.983Z,9.4362
2023-05-15T02:11:50.871Z,9.4518
2023-05-15T02:12:51.701Z,9.4583
2023-05-15T02:13:52.027Z,9.4480
2023-05-15T02:14:52.969Z,9.4440
2023-05-15T02:15:53.891Z,9.4333
2023-05-15T02:16:54.208Z,9.4156
2023-05-15T02:17:55.269Z,9.3991
2023-05-15T02:18:55.645Z,9.4099
2023-05-15T02:19:55.906Z,9.3899
2023-05-15T02:20:56.722Z,9.4012
2023-05-15T02:21:57.549Z,9.3771
2023-05-15T02:22:58.405Z,9.3463
2023-05-15T02:23:58.689Z,9.3292
2023-05-15T02:24:59.643Z,9.3176
2023-05-15T02:26:00.497Z,9.3181
2023-05-15T02:27:00.774Z,9.2964
2023-05-15T02:28:01.705Z,9.2736
2023-05-15T02:29:02.571Z,9.2680
2023-05-15T02:30:03.460Z,9.2713
2023-05-15T02:32:04.999Z,9.2748
2023-05-15T02:33:05.916Z,9.2924
2023-05-15T02:34:06.167Z,9.3068
2023-05-15T02:35:06.439Z,9.3040
2023-05-15T02:36:06.719Z,9.3168
2023-05-15T02:37:07.627Z,9.3484
2023-05-15T02:38:07.918Z,9.3594
2023-05-15T02:40:09.712Z,9.3562
2023-05-15T02:41:10.009Z,9.3899
2023-05-15T02:42:10.609Z,9.4036
2023-05-15T02:43:11.562Z,9.3879
2023-05-15T02:44:11.884Z,9.3751
2023-05-15T02:45:12.183Z,9.3777
2023-05-15T02:46:12.550Z,9.3919
2023-05-15T02:47:12.882Z,9.3717
2023-05-15T02:48:13.756Z,9.3332
2023-05-15T02:49:14.103Z,9.3267
2023-05-15T02:51:14.587Z,9.3186
2023-05-15T02:52:14.871Z,9.3135
2023-05-15T02:53:15.728Z,9.3130
2023-05-15T02:54:16.504Z,9.2991
2023-05-15T02:55:16.816Z,9.2839
2023-05-15T02:56:18.424Z,9.2749
2023-05-15T02:57:19.965Z,9.2919
2023-05-15T02:58:20.846Z,9.3105
2023-05-15T02:59:21.159Z,9.3191
2023-05-15T03:00:21.977Z,9.3199
2023-05-15T03:01:22.967Z,9.3339
2023-05-15T03:03:24.234Z,9.3815
2023-05-15T03:04:25.135Z,9.4185
2023-05-15T03:05:26.235Z,9.4459
2023-05-15T03:06:26.962Z,9.4566
2023-05-15T03:07:27.247Z,9.4525
2023-05-15T03:08:27.531Z,9.4486
2023-05-15T03:09:27.783Z,9.4442
2023-05-15T03:10:28.050Z,9.4548
2023-05-15T03:11:28.340Z,9.4641
2023-05-15T03:13:29.258Z,9.4195
2023-05-15T03:14:29.757Z,9.3612
2023-05-15T03:15:30.108Z,9.3040
2023-05-15T03:16:30.430Z,9.2606
2023-05-15T03:17:30.704Z,9.2082
2023-05-15T03:18:30.976Z,9.1907
2023-05-15T03:19:31.784Z,9.1526
2023-05-15T03:20:32.742Z,9.0801
2023-05-15T03:21:33.023Z,9.0544
2023-05-15T03:22:33.896Z,9.0564
2023-05-15T03:23:35.776Z,9.0782
2023-05-15T03:24:35.281Z,9.0597
2023-05-15T03:25:36.382Z,9.0150
2023-05-15T03:26:39.894Z,9.0033
2023-05-15T03:27:37.470Z,8.9970
2023-05-15T03:28:38.757Z,9.0331
2023-05-15T03:29:40.072Z,9.0010
2023-05-15T03:30:40.986Z,9.0229
2023-05-15T03:31:41.291Z,9.0235
2023-05-15T03:32:42.237Z,9.0192
2023-05-15T03:33:43.125Z,9.0110
2023-05-15T03:34:43.430Z,9.0055
2023-05-15T03:35:44.308Z,9.0297
2023-05-15T03:36:44.601Z,9.0533
2023-05-15T03:37:44.972Z,9.0522
2023-05-15T03:38:45.224Z,9.0447
2023-05-15T03:39:45.490Z,9.0472
2023-05-15T03:40:46.354Z,9.0430
2023-05-15T03:41:46.625Z,9.0539
2023-05-15T03:42:46.946Z,9.0763
2023-05-15T03:43:47.846Z,9.0879
2023-05-15T03:44:48.127Z,9.0773
2023-05-15T03:45:49.004Z,9.0640
2023-05-15T03:46:49.905Z,9.0734
2023-05-15T03:47:50.310Z,9.0583
2023-05-15T03:48:51.287Z,9.0581
2023-05-15T03:49:52.728Z,9.0846
2023-05-15T03:50:53.015Z,9.0950
2023-05-15T03:51:53.542Z,9.0750
2023-05-15T03:52:53.850Z,9.0370
2023-05-15T03:55:55.167Z,8.9587
2023-05-15T03:56:55.439Z,8.9680
2023-05-15T03:57:55.785Z,8.9404
2023-05-15T03:58:56.306Z,8.9272
2023-05-15T03:59:56.628Z,8.9419
2023-05-15T04:00:56.918Z,8.9687
2023-05-15T04:03:58.203Z,9.0568
2023-05-15T04:04:58.495Z,9.1107
2023-05-15T04:06:58.913Z,9.1736
2023-05-15T04:07:59.155Z,9.1890
2023-05-15T04:08:59.429Z,9.1862
2023-05-15T04:09:59.711Z,9.1862
2023-05-15T04:11:00.676Z,9.1991
2023-05-15T04:12:00.972Z,9.2130
2023-05-15T04:13:01.442Z,9.2504
2023-05-15T04:14:01.930Z,9.2619
2023-05-15T04:15:02.584Z,9.2873
2023-05-15T04:16:03.195Z,9.3168
2023-05-15T04:17:03.470Z,9.3384
2023-05-15T04:18:04.660Z,9.3532
2023-05-15T04:19:06.295Z,9.3630
2023-05-15T04:20:07.251Z,9.3777
2023-05-15T04:21:07.746Z,9.3662
2023-05-15T04:22:08.028Z,9.3556
2023-05-15T04:23:08.388Z,9.3684
2023-05-15T04:24:08.641Z,9.3761
2023-05-15T04:26:09.631Z,9.4179
2023-05-15T04:27:09.986Z,9.4229
2023-05-15T04:28:11.207Z,9.4561
2023-05-15T04:29:12.137Z,9.4622
2023-05-15T04:30:12.408Z,9.4792
2023-05-15T04:31:13.394Z,9.4854
2023-05-15T04:32:14.982Z,9.4936
2023-05-15T04:33:15.354Z,9.4734
2023-05-15T04:34:16.205Z,9.5180
2023-05-15T04:35:16.509Z,9.5407
2023-05-15T04:37:17.671Z,9.5404
2023-05-15T04:38:17.917Z,9.5583
2023-05-15T04:39:18.805Z,9.6036
2023-05-15T04:40:19.160Z,9.5906
2023-05-15T04:41:19.548Z,9.6155
2023-05-15T04:42:20.481Z,9.6033
2023-05-15T04:43:21.853Z,9.6115
2023-05-15T04:44:22.165Z,9.6257
2023-05-15T04:45:23.256Z,9.6560
2023-05-15T04:46:24.902Z,9.6967
2023-05-15T04:47:25.275Z,9.6965
2023-05-15T04:48:26.489Z,9.6643
2023-05-15T04:49:26.837Z,9.6689
2023-05-15T04:50:27.236Z,9.6772
2023-05-15T04:51:28.222Z,9.6628
2023-05-15T04:52:29.358Z,9.6723
2023-05-15T04:53:29.705Z,9.6990
2023-05-15T04:54:30.696Z,9.7159
2023-05-15T04:55:31.805Z,9.7156
2023-05-15T04:57:33.136Z,9.7080
2023-05-15T04:58:33.417Z,9.6807
2023-05-15T04:59:34.422Z,9.7090
2023-05-15T05:00:35.904Z,9.7528
2023-05-15T05:02:36.681Z,9.7728
2023-05-15T05:03:37.057Z,9.7992
2023-05-15T05:04:37.930Z,9.7924
2023-05-15T05:05:38.287Z,9.8012
2023-05-15T05:06:39.781Z,9.8303
2023-05-15T05:07:40.760Z,9.8399
2023-05-15T05:08:41.059Z,9.8087
2023-05-15T05:09:41.375Z,9.8259
2023-05-15T05:10:41.719Z,9.7967
2023-05-15T05:11:42.078Z,9.8030
2023-05-15T05:12:42.431Z,9.8552
2023-05-15T05:13:42.873Z,9.8672
2023-05-15T05:14:43.516Z,9.8356
2023-05-15T05:15:43.896Z,9.8555
2023-05-15T05:16:44.925Z,9.8669
2023-05-15T05:17:45.860Z,9.8431
2023-05-15T05:18:47.043Z,9.8577
2023-05-15T05:19:48.149Z,9.8776
2023-05-15T05:20:48.525Z,9.8869
2023-05-15T05:22:49.407Z,9.9267
2023-05-15T05:23:49.710Z,9.8953
2023-05-15T05:24:50.247Z,9.8023
2023-05-15T05:25:50.570Z,9.7726
2023-05-15T05:26:51.094Z,9.8237
2023-05-15T05:27:51.426Z,9.8271
2023-05-15T05:28:51.741Z,9.7983
2023-05-15T05:29:52.958Z,9.8252
2023-05-15T05:30:53.359Z,9.8022
2023-05-15T05:32:54.886Z,9.9136
2023-05-15T05:33:55.224Z,9.8408
2023-05-15T05:34:56.428Z,9.8450
2023-05-15T05:35:57.949Z,9.8653
2023-05-15T05:36:58.285Z,9.9231
2023-05-15T05:37:59.183Z,10.0157
2023-05-15T05:39:00.222Z,10.0243
2023-05-15T05:40:00.583Z,10.0106
2023-05-15T05:41:01.331Z,10.0053
2023-05-15T05:42:01.941Z,10.1115
2023-05-15T05:43:02.247Z,10.1070
2023-05-15T05:44:03.078Z,10.1936
2023-05-15T05:45:04.312Z,10.1878
2023-05-15T05:46:04.642Z,10.1820
2023-05-15T05:47:05.624Z,10.0574
2023-05-15T05:48:06.581Z,10.0408
2023-05-15T05:49:06.946Z,10.0783
2023-05-15T05:50:07.264Z,10.0346
2023-05-15T05:51:07.589Z,10.0922
2023-05-15T05:52:07.976Z,10.1317
2023-05-15T05:53:08.333Z,10.1372
2023-05-15T05:54:08.679Z,10.1476
2023-05-15T05:55:08.996Z,10.0316
2023-05-15T05:56:09.341Z,10.1283
2023-05-15T05:57:10.116Z,10.0929
2023-05-15T05:58:18.284Z,10.0770
2023-05-15T06:00:11.923Z,10.0869
2023-05-15T06:01:12.253Z,10.0574
2023-05-15T06:02:13.243Z,10.1101
2023-05-15T06:03:14.284Z,10.0606
2023-05-15T06:04:16.273Z,10.0928
2023-05-15T06:05:15.728Z,10.0670
2023-05-15T06:06:16.940Z,10.0505
2023-05-15T06:07:17.312Z,10.0491
2023-05-15T06:08:17.682Z,10.0560
2023-05-15T06:09:18.818Z,10.1356
2023-05-15T06:10:19.116Z,10.1378
2023-05-15T06:11:20.058Z,10.0062
2023-05-15T06:12:22.890Z,10.0152
2023-05-15T06:13:21.724Z,10.0652
2023-05-15T06:14:22.887Z,10.0263
2023-05-15T06:15:23.402Z,10.0292
2023-05-15T06:16:24.466Z,10.1015
2023-05-15T06:17:25.616Z,10.0931
2023-05-15T06:19:27.091Z,10.0686
2023-05-15T06:20:27.495Z,10.0669
2023-05-15T06:22:30.086Z,10.0783
2023-05-15T06:23:31.687Z,10.0733
2023-05-15T06:24:32.051Z,10.0362
2023-05-15T06:25:33.008Z,10.0523
2023-05-15T06:26:34.070Z,10.1473
2023-05-15T06:27:34.449Z,10.1811
2023-05-15T06:28:35.343Z,10.1762
2023-05-15T06:29:36.591Z,10.0926
2023-05-15T06:30:37.016Z,10.1713
2023-05-15T06:31:37.944Z,10.1806
2023-05-15T06:32:39.359Z,10.2307
2023-05-15T06:33:39.741Z,10.2672
2023-05-15T06:34:40.846Z,10.2326
2023-05-15T06:35:41.161Z,10.2195
2023-05-15T06:36:41.961Z,10.2288
2023-05-15T06:37:42.944Z,10.2274
2023-05-15T06:38:43.256Z,10.2285
2023-05-15T06:39:44.238Z,10.3280
2023-05-15T06:40:44.594Z,10.3921
2023-05-15T06:42:45.506Z,10.2683
2023-05-15T06:46:47.332Z,10.1508
2023-05-15T06:47:47.736Z,10.1390
2023-05-15T06:48:48.277Z,10.1397
2023-05-15T06:49:49.076Z,10.2059
2023-05-15T06:50:50.015Z,10.2029
2023-05-15T06:51:50.331Z,10.1996
2023-05-15T06:52:51.294Z,10.1916
2023-05-15T06:53:51.641Z,10.1402
2023-05-15T06:54:52.141Z,10.2314
2023-05-15T06:55:53.116Z,10.2733
2023-05-15T06:56:53.526Z,10.3365
2023-05-15T06:57:53.896Z,10.3394
2023-05-15T06:58:54.824Z,10.4911
2023-05-15T06:59:55.178Z,10.3960
2023-05-15T07:00:56.507Z,10.3764
2023-05-15T07:01:57.257Z,10.6208
2023-05-15T07:02:58.281Z,10.7012
2023-05-15T07:03:59.344Z,10.7443
2023-05-15T07:05:01.846Z,10.6742
2023-05-15T07:06:02.211Z,10.6336
2023-05-15T07:07:03.401Z,10.7029
2023-05-15T07:08:03.727Z,10.7283
2023-05-15T07:09:04.061Z,10.8023
2023-05-15T07:10:04.641Z,10.6628
2023-05-15T07:11:05.064Z,10.5414
2023-05-15T07:14:06.107Z,10.6541
2023-05-15T07:15:07.218Z,10.7023
2023-05-15T07:16:08.120Z,10.6798
2023-05-15T07:17:08.475Z,10.7993
2023-05-15T07:18:09.670Z,10.9197
2023-05-15T07:19:10.675Z,10.8899
2023-05-15T07:20:10.990Z,10.9674
2023-05-15T07:21:11.917Z,10.8738
2023-05-15T07:22:12.435Z,11.0654
2023-05-15T07:23:12.738Z,11.2616
2023-05-15T07:24:14.048Z,11.2552
2023-05-15T07:25:16.833Z,11.2975
2023-05-15T07:30:15.718Z,11.1883
2023-05-15T07:31:16.115Z,11.1969
2023-05-15T07:32:17.306Z,11.2408
2023-05-15T07:33:17.696Z,11.1437
2023-05-15T07:34:18.683Z,10.8646
2023-05-15T07:35:20.254Z,10.8538
2023-05-15T07:36:20.575Z,10.8136
2023-05-15T07:37:21.683Z,10.7795
2023-05-15T07:38:23.507Z,10.7762
2023-05-15T07:39:23.892Z,10.7268
2023-05-15T07:40:25.183Z,10.6461
2023-05-15T07:41:25.516Z,10.6322
2023-05-15T07:42:27.453Z,10.5345
2023-05-15T07:44:26.854Z,10.4067
2023-05-15T07:45:28.383Z,10.3983
2023-05-15T07:47:29.641Z,10.2841
2023-05-15T07:48:30.876Z,10.3263
2023-05-15T07:49:31.770Z,10.3356
2023-05-15T07:50:32.093Z,10.3447
2023-05-15T07:51:32.444Z,10.3032
2023-05-15T07:52:33.310Z,10.2303
2023-05-15T07:53:33.631Z,10.2100
2023-05-15T07:54:34.526Z,10.1389
2023-05-15T07:55:36.031Z,10.2117
2023-05-15T07:56:36.331Z,10.2120
2023-05-15T07:57:37.302Z,10.2595
2023-05-15T07:58:37.672Z,10.2231
2023-05-15T07:59:38.645Z,10.1749
2023-05-15T08:00:39.590Z,10.2451
2023-05-15T08:01:40.873Z,10.2154
2023-05-15T08:02:41.353Z,10.1828
2023-05-15T08:03:42.090Z,10.1495
2023-05-15T08:04:42.464Z,10.1326
2023-05-15T08:06:44.557Z,10.1215
2023-05-15T08:07:45.765Z,10.1832
2023-05-15T08:08:46.117Z,10.2408
2023-05-15T08:09:46.679Z,10.3240
2023-05-15T08:10:47.202Z,10.3344
2023-05-15T08:11:47.860Z,10.3727
2023-05-15T08:12:48.198Z,10.5411
2023-05-15T08:13:48.555Z,10.5118
2023-05-15T08:14:49.150Z,10.4911
2023-05-15T08:15:49.569Z,10.5312
2023-05-15T08:16:49.910Z,10.4936
2023-05-15T08:17:50.306Z,10.5105
2023-05-15T08:19:51.445Z,10.6062
2023-05-15T08:20:51.829Z,10.7485
2023-05-15T08:21:52.892Z,10.8014
2023-05-15T08:22:54.129Z,10.9898
2023-05-15T08:23:54.844Z,11.0748
2023-05-15T08:24:55.970Z,11.2192
2023-05-15T08:25:56.547Z,11.3203
2023-05-15T08:26:57.050Z,11.3848
2023-05-15T08:27:57.588Z,11.5553
2023-05-15T08:28:58.244Z,11.7605
2023-05-15T08:29:58.784Z,11.5820
2023-05-15T08:30:59.162Z,11.5852
2023-05-15T08:31:59.796Z,11.7070
2023-05-15T08:33:00.432Z,11.8963
2023-05-15T08:35:00.949Z,11.8456
2023-05-15T08:36:01.317Z,12.1183
2023-05-15T08:37:01.635Z,12.3003
2023-05-15T08:39:02.943Z,12.4241
2023-05-15T08:40:03.829Z,12.8737
2023-05-15T08:41:04.181Z,12.9386
2023-05-15T08:42:04.864Z,12.6819
2023-05-15T08:43:05.485Z,12.4859
2023-05-15T08:44:05.814Z,12.4175
2023-05-15T08:45:06.758Z,12.6757
2023-05-15T08:46:07.090Z,12.4213
2023-05-15T08:48:07.960Z,12.4225
2023-05-15T08:50:08.550Z,12.7096
2023-05-15T08:51:09.142Z,12.3401
2023-05-15T08:52:09.496Z,12.4949
2023-05-15T08:56:11.698Z,12.9471
2023-05-15T08:57:12.034Z,13.0084
2023-05-15T08:58:13.050Z,13.0741
2023-05-15T08:59:13.406Z,13.3320
2023-05-15T09:00:14.708Z,13.2677
2023-05-15T09:01:15.303Z,13.3855
2023-05-15T09:02:15.625Z,13.3207
2023-05-15T09:03:16.093Z,13.4929
2023-05-15T09:04:16.446Z,13.2529
2023-05-15T09:05:16.812Z,13.0105
2023-05-15T09:06:17.138Z,13.2268
2023-05-15T09:08:17.660Z,13.2932
2023-05-15T09:09:18.051Z,13.3515
2023-05-15T09:10:18.429Z,13.0718
2023-05-15T09:12:19.121Z,13.0387
2023-05-15T09:13:19.489Z,13.1045
2023-05-15T09:14:20.038Z,13.3507
2023-05-15T09:15:20.430Z,12.9376
2023-05-15T09:16:20.793Z,12.2637
2023-05-15T09:17:21.187Z,12.2221
2023-05-15T09:18:21.680Z,12.1320
2023-05-15T09:19:22.070Z,12.0795
2023-05-15T09:20:22.389Z,11.9920
2023-05-15T09:21:22.740Z,12.1719
2023-05-15T09:22:23.097Z,11.9031
2023-05-15T09:23:24.140Z,11.8934
2023-05-15T09:24:24.673Z,12.0248
2023-05-15T09:26:26.229Z,11.8378
2023-05-15T09:27:27.126Z,11.7422
2023-05-15T09:28:28.089Z,11.7743
2023-05-15T09:29:29.115Z,11.5316
2023-05-15T09:31:29.652Z,11.4868
2023-05-15T09:32:30.004Z,11.6100
2023-05-15T09:34:31.573Z,11.4590
2023-05-15T09:35:32.156Z,11.4433
2023-05-15T09:36:33.263Z,11.4616
2023-05-15T09:37:34.470Z,11.4010
2023-05-15T09:38:34.817Z,11.3503
2023-05-15T09:39:36.094Z,11.1058
2023-05-15T09:40:36.488Z,11.1582
2023-05-15T09:41:36.841Z,11.2003
2023-05-15T09:42:38.098Z,10.9472
2023-05-15T09:43:38.498Z,11.0089
2023-05-15T09:46:41.290Z,10.9743
2023-05-15T09:48:42.010Z,10.7458
2023-05-15T09:49:42.392Z,10.7011
2023-05-15T09:50:42.764Z,10.6819
2023-05-15T09:51:43.168Z,10.7661
2023-05-15T09:52:43.531Z,10.9496
2023-05-15T09:53:43.913Z,11.0854
2023-05-15T09:54:45.668Z,11.0034
2023-05-15T09:55:46.960Z,10.9797
2023-05-15T09:57:48.241Z,11.3083
2023-05-15T09:58:48.745Z,11.6694
2023-05-15T09:59:49.565Z,11.9517
2023-05-15T10:00:50.584Z,12.0890
2023-05-15T10:01:51.672Z,12.6869
2023-05-15T10:03:52.339Z,13.7743
2023-05-15T10:04:53.576Z,13.8043
2023-05-15T10:05:54.024Z,15.0570
2023-05-15T10:06:54.999Z,15.5934
2023-05-15T10:07:55.962Z,15.4374
2023-05-15T10:08:57.130Z,14.9736
2023-05-15T10:09:57.502Z,14.9749
2023-05-15T10:10:58.540Z,15.1484
2023-05-15T10:11:59.940Z,15.2851
2023-05-15T10:13:00.305Z,15.4564
2023-05-15T10:14:01.250Z,15.7643
2023-05-15T10:15:02.636Z,16.3946
2023-05-15T10:16:03.065Z,15.5820
2023-05-15T10:17:04.429Z,15.6117
2023-05-15T10:18:05.552Z,15.7476
2023-05-15T10:19:06.010Z,16.0659
2023-05-15T10:20:07.157Z,16.9849
2023-05-15T10:21:08.229Z,17.0372
2023-05-15T10:22:08.642Z,16.6448
2023-05-15T10:23:09.926Z,16.3297
2023-05-15T10:24:10.861Z,16.0591
2023-05-15T10:25:11.317Z,15.9787
2023-05-15T10:27:12.599Z,15.5821
2023-05-15T10:28:12.977Z,15.5949
2023-05-15T10:29:14.014Z,15.8559
2023-05-15T10:30:15.506Z,14.8782
2023-05-15T10:31:16.385Z,15.0700
2023-05-15T10:32:16.824Z,15.4927
2023-05-15T10:33:18.024Z,15.9494
2023-05-15T10:34:18.465Z,16.1414
2023-05-15T10:35:19.546Z,16.2661
2023-05-15T10:36:21.524Z,16.7929
2023-05-15T10:37:23.162Z,16.2885
2023-05-15T10:38:23.591Z,16.3722
2023-05-15T10:39:24.131Z,16.1339
2023-05-15T10:40:24.716Z,15.0448
2023-05-15T10:41:26.482Z,13.9611
2023-05-15T10:42:26.906Z,13.5623
2023-05-15T10:43:28.083Z,13.9396
2023-05-15T10:44:28.704Z,13.9470
2023-05-15T10:45:29.295Z,13.5052
2023-05-15T10:46:29.725Z,13.3992
2023-05-15T10:47:30.140Z,13.4630
2023-05-15T10:48:31.010Z,13.3105
2023-05-15T10:49:31.430Z,13.1252
2023-05-15T10:50:31.870Z,13.0610
2023-05-15T10:51:32.244Z,13.1973
2023-05-15T10:52:32.889Z,13.1240
2023-05-15T10:53:33.313Z,12.8729
2023-05-15T10:54:33.777Z,12.8466
2023-05-15T10:55:34.961Z,12.7722
2023-05-15T10:56:36.454Z,12.9526
2023-05-15T10:57:36.861Z,12.7077
2023-05-15T10:58:37.481Z,12.6224
2023-05-15T10:59:37.960Z,12.4675
2023-05-15T11:00:38.410Z,12.3568
2023-05-15T11:01:39.504Z,12.5338
2023-05-15T11:02:40.272Z,12.4372
2023-05-15T11:03:47.850Z,12.4577
2023-05-15T11:04:42.394Z,12.3376
2023-05-15T11:05:42.899Z,12.3651
2023-05-15T11:07:44.654Z,12.6565
2023-05-15T11:08:45.126Z,12.7903
2023-05-15T11:09:46.231Z,12.9690
2023-05-15T11:10:47.725Z,12.7825
2023-05-15T11:11:48.321Z,12.6927
2023-05-15T11:12:48.710Z,12.8494
2023-05-15T11:13:49.990Z,12.5938
2023-05-15T11:14:51.224Z,12.8989
2023-05-15T11:15:51.637Z,13.3793
2023-05-15T11:16:52.348Z,14.0327
2023-05-15T11:17:53.334Z,14.4200
2023-05-15T11:18:53.816Z,15.0514
2023-05-15T11:19:54.552Z,15.7049
2023-05-15T11:20:54.948Z,15.1392
2023-05-15T11:21:56.059Z,15.4556
2023-05-15T11:22:57.473Z,15.3505
2023-05-15T11:23:58.050Z,14.8248
2023-05-15T11:24:58.993Z,14.9361
2023-05-15T11:26:00.176Z,14.9009
2023-05-15T11:27:01.550Z,14.4700
2023-05-15T11:28:01.981Z,14.4759
2023-05-15T11:29:03.214Z,15.0993
2023-05-15T11:30:03.822Z,14.9472
2023-05-15T11:31:04.484Z,14.9068
2023-05-15T11:32:04.888Z,14.6905
2023-05-15T11:33:05.338Z,15.0527
2023-05-15T11:36:06.307Z,15.4149
2023-05-15T11:39:08.334Z,15.0739
2023-05-15T11:40:09.539Z,14.6390
2023-05-15T11:41:10.792Z,15.0930
2023-05-15T11:42:11.215Z,15.3448
2023-05-15T11:43:12.068Z,15.2296
2023-05-15T11:44:13.079Z,14.9543
2023-05-15T11:45:13.651Z,14.4720
2023-05-15T11:46:14.445Z,14.6531
2023-05-15T11:47:14.906Z,14.4420
2023-05-15T11:48:15.340Z,14.7536
2023-05-15T11:49:16.745Z,14.5871
2023-05-15T11:55:28.466Z,16.1815
2023-05-15T11:56:29.070Z,16.1006
2023-05-15T11:57:29.678Z,16.1560
2023-05-15T11:58:31.104Z,15.9970
2023-05-15T11:59:32.423Z,15.6810
2023-05-15T12:00:34.001Z,15.1075
2023-05-15T12:02:35.137Z,17.0736
2023-05-15T12:03:35.874Z,16.0642
2023-05-15T12:04:37.573Z,16.1712
2023-05-15T12:05:42.348Z,16.3961
2023-05-15T12:06:39.933Z,16.2808
2023-05-15T12:07:40.793Z,15.6298
2023-05-15T12:08:42.123Z,16.0508
2023-05-15T12:09:43.812Z,16.1922
2023-05-15T12:10:44.417Z,16.4014
2023-05-15T12:11:45.941Z,17.1422
2023-05-15T12:12:46.508Z,17.4873
2023-05-15T12:14:48.002Z,16.7112
2023-05-15T12:15:49.210Z,17.1822
2023-05-15T12:16:49.694Z,17.4176
2023-05-15T12:17:50.959Z,17.1506
2023-05-15T12:18:52.000Z,17.1202
2023-05-15T12:19:52.613Z,17.1132
2023-05-15T12:21:55.057Z,17.0598
2023-05-15T12:22:56.792Z,17.0282
2023-05-15T12:24:59.141Z,16.7781
2023-05-15T12:26:00.275Z,17.0455
2023-05-15T12:27:00.901Z,15.6471
2023-05-15T12:28:01.437Z,15.8008
2023-05-15T12:29:02.565Z,16.4878
2023-05-15T12:30:03.876Z,16.4341
2023-05-15T12:31:05.323Z,17.1270
2023-05-15T12:32:05.858Z,17.8572
2023-05-15T12:33:07.123Z,18.4649
2023-05-15T12:34:07.896Z,17.8218
2023-05-15T12:35:08.951Z,17.5494
2023-05-15T12:36:10.039Z,18.1425
2023-05-15T12:37:11.276Z,18.2842
2023-05-15T12:38:12.222Z,18.9544
2023-05-15T12:39:13.419Z,20.0130
2023-05-15T12:40:15.192Z,18.4195
2023-05-15T12:41:16.049Z,17.1450
2023-05-15T12:42:17.245Z,17.0612
2023-05-15T12:43:19.075Z,16.7129
2023-05-15T12:44:20.093Z,16.9354
2023-05-15T12:45:20.552Z,16.0930
2023-05-15T12:46:21.812Z,15.3199
2023-05-15T12:47:22.377Z,15.7274
2023-05-15T12:48:22.915Z,15.5486
2023-05-15T12:49:24.130Z,15.4792
2023-05-15T12:50:25.305Z,15.9488
2023-05-15T12:51:26.676Z,16.8103
2023-05-15T12:52:28.015Z,16.8872
2023-05-15T12:53:29.553Z,16.9351
2023-05-15T12:54:30.866Z,16.7977
2023-05-15T12:55:32.135Z,16.7997
2023-05-15T12:56:32.559Z,16.6074
2023-05-15T12:57:33.703Z,16.4901
2023-05-15T12:58:35.817Z,16.5875
2023-05-15T12:59:36.287Z,17.1335
2023-05-15T13:00:36.854Z,16.3126
2023-05-15T13:01:37.965Z,15.6566
2023-05-15T13:02:40.110Z,15.4027
2023-05-15T13:04:41.813Z,15.4034
2023-05-15T13:05:42.212Z,15.8881
2023-05-15T13:06:46.899Z,16.2952
2023-05-15T13:07:44.915Z,16.8248
2023-05-15T13:08:47.113Z,16.2690
2023-05-15T13:09:48.758Z,16.1577
2023-05-15T13:10:49.374Z,16.0213
2023-05-15T13:11:50.589Z,15.8534
2023-05-15T13:12:52.490Z,16.1354
2023-05-15T13:13:53.233Z,16.0539
2023-05-15T13:14:55.096Z,15.6236
2023-05-15T13:15:56.413Z,15.6082
2023-05-15T13:16:57.453Z,15.7279
2023-05-15T13:17:58.216Z,16.0907
2023-05-15T13:18:59.526Z,16.2843
2023-05-15T13:20:01.134Z,16.0987
2023-05-15T13:21:01.536Z,16.1801
2023-05-15T13:22:03.032Z,15.8383
2023-05-15T13:23:05.084Z,15.5950
2023-05-15T13:24:05.511Z,15.8131
2023-05-15T13:25:07.021Z,16.2498
2023-05-15T13:26:08.789Z,16.0157
2023-05-15T13:27:10.376Z,15.7999
2023-05-15T13:28:10.784Z,15.9278
2023-05-15T13:29:11.971Z,15.9785
2023-05-15T13:30:13.277Z,15.8501
2023-05-15T13:31:13.677Z,16.1859
2023-05-15T13:32:14.372Z,16.3962
2023-05-15T13:33:15.893Z,16.2505
2023-05-15T13:34:16.351Z,16.1731
2023-05-15T13:35:18.557Z,16.0614
2023-05-15T13:36:19.154Z,16.4732
2023-05-15T13:37:19.585Z,16.8336
2023-05-15T13:38:20.287Z,17.0337
2023-05-15T13:39:20.710Z,16.6410